Time;durP1;ratioP1;P1;durP2;ratioP2;P2;SDS_P1;SDS_P2;PMS_P1;PMS_P2;Temp;Humidity;BMP_temperature;BMP_pressure;BME280_temperature;BME280_humidity;BME280_pressure;Samples;Min_cycle;Max_cycle;Signal;HPM_P1;HPM_P2
2024/04/03 00:00:19;;;;;;;4.90;1.55;;;;;;;;;;1043700;28;20329;-46
2024/04/03 00:00:51;;;;;;;5.20;1.20;;;;;;;;;;1044560;28;20443;-44
2024/04/03 00:01:22;;;;;;;6.22;0.95;;;;;;;;;;1042548;28;20413;-45
2024/04/03 00:01:53;;;;;;;4.30;1.17;;;;;;;;;;1041273;28;20017;-45
2024/04/03 00:02:25;;;;;;;2.90;1.20;;;;;;;;;;1042993;28;20071;-46
2024/04/03 00:02:56;;;;;;;2.28;0.90;;;;;;;;;;1041290;28;20105;-47
2024/04/03 00:03:27;;;;;;;3.85;0.90;;;;;;;;;;1043215;28;20480;-45
2024/04/03 00:03:59;;;;;;;3.72;1.02;;;;;;;;;;1043362;28;20092;-45
2024/04/03 00:04:30;;;;;;;5.63;1.17;;;;;;;;;;1042055;28;20080;-46
2024/04/03 00:05:01;;;;;;;6.65;1.02;;;;;;;;;;1042294;28;20013;-46
2024/04/03 00:05:32;;;;;;;6.05;0.70;;;;;;;;;;1041517;28;20013;-47
2024/04/03 00:06:05;;;;;;;3.72;1.15;;;;;;;;;;1044074;28;20021;-45
2024/04/03 00:06:36;;;;;;;4.57;0.98;;;;;;;;;;1040320;28;20016;-45
2024/04/03 00:07:07;;;;;;;4.88;0.90;;;;;;;;;;1042040;28;20047;-48
2024/04/03 00:07:38;;;;;;;3.50;0.70;;;;;;;;;;1040444;28;20036;-46
2024/04/03 00:08:10;;;;;;;3.15;1.02;;;;;;;;;;1040992;28;20092;-44
2024/04/03 00:08:41;;;;;;;7.18;1.35;;;;;;;;;;1040684;28;20009;-48
2024/04/03 00:09:12;;;;;;;3.70;1.00;;;;;;;;;;1044068;28;20017;-45
2024/04/03 00:09:44;;;;;;;3.47;1.00;;;;;;;;;;1042276;28;20048;-45
2024/04/03 00:10:15;;;;;;;3.10;1.30;;;;;;;;;;1043218;28;20448;-45
2024/04/03 00:10:46;;;;;;;5.30;1.00;;;;;;;;;;1041626;28;20017;-46
2024/04/03 00:11:18;;;;;;;6.03;1.40;;;;;;;;;;1044810;28;20013;-47
2024/04/03 00:11:49;;;;;;;4.47;1.15;;;;;;;;;;1046109;28;20367;-48
2024/04/03 00:12:20;;;;;;;5.30;1.52;;;;;;;;;;1044405;28;20155;-45
2024/04/03 00:12:52;;;;;;;4.38;0.77;;;;;;;;;;1040479;28;20006;-45
2024/04/03 00:13:23;;;;;;;3.75;1.10;;;;;;;;;;1041392;28;20026;-45
2024/04/03 00:13:54;;;;;;;7.57;0.90;;;;;;;;;;1043784;28;20020;-45
2024/04/03 00:14:26;;;;;;;5.18;1.33;;;;;;;;;;1043459;28;20012;-46
2024/04/03 00:14:57;;;;;;;3.40;1.13;;;;;;;;;;1043266;28;20013;-45
2024/04/03 00:15:28;;;;;;;4.30;1.00;;;;;;;;;;1042589;28;20039;-46
2024/04/03 00:16:00;;;;;;;4.43;1.00;;;;;;;;;;1042789;28;20009;-46
2024/04/03 00:16:31;;;;;;;4.90;0.93;;;;;;;;;;1041204;28;20480;-45
2024/04/03 00:17:03;;;;;;;4.28;0.90;;;;;;;;;;1044100;28;20016;-45
2024/04/03 00:17:34;;;;;;;3.72;1.23;;;;;;;;;;1043227;28;20029;-45
2024/04/03 00:18:05;;;;;;;5.43;0.90;;;;;;;;;;1042048;28;20017;-45
2024/04/03 00:18:36;;;;;;;4.10;1.05;;;;;;;;;;1041168;28;20013;-45
2024/04/03 00:19:08;;;;;;;5.28;0.90;;;;;;;;;;1043958;28;20016;-46
2024/04/03 00:19:39;;;;;;;4.22;0.85;;;;;;;;;;1039753;28;20460;-46
2024/04/03 00:20:10;;;;;;;4.63;0.73;;;;;;;;;;1043508;28;20440;-46
2024/04/03 00:20:42;;;;;;;4.82;0.98;;;;;;;;;;1039929;28;20327;-45
2024/04/03 00:21:13;;;;;;;4.97;0.90;;;;;;;;;;1044284;28;20468;-46
2024/04/03 00:21:46;;;;;;;2.83;0.63;;;;;;;;;;1041202;28;20029;-45
2024/04/03 00:22:19;;;;;;;2.55;0.90;;;;;;;;;;1039601;28;20722;-46
2024/04/03 00:22:50;;;;;;;5.00;1.40;;;;;;;;;;1040294;28;20455;-45
2024/04/03 00:23:22;;;;;;;8.50;1.05;;;;;;;;;;1043770;28;20017;-46
2024/04/03 00:23:54;;;;;;;4.97;1.05;;;;;;;;;;1041901;28;20021;-46
2024/04/03 00:24:25;;;;;;;2.45;0.82;;;;;;;;;;1039429;28;20017;-46
2024/04/03 00:24:56;;;;;;;4.95;0.93;;;;;;;;;;1043617;28;20098;-46
2024/04/03 00:25:28;;;;;;;5.05;1.38;;;;;;;;;;1043502;28;20013;-45
2024/04/03 00:26:00;;;;;;;5.40;1.10;;;;;;;;;;1043280;28;20026;-46
2024/04/03 00:26:32;;;;;;;6.07;1.33;;;;;;;;;;1041812;28;20030;-44
2024/04/03 00:27:03;;;;;;;4.43;0.88;;;;;;;;;;1042907;28;20017;-45
2024/04/03 00:27:34;;;;;;;5.82;1.15;;;;;;;;;;1040186;28;20006;-47
2024/04/03 00:28:05;;;;;;;5.40;1.40;;;;;;;;;;1042983;28;20025;-47
2024/04/03 00:28:38;;;;;;;2.30;0.98;;;;;;;;;;1040340;28;20017;-46
2024/04/03 00:29:09;;;;;;;11.10;1.40;;;;;;;;;;1043818;28;20017;-47
2024/04/03 00:29:40;;;;;;;4.22;1.40;;;;;;;;;;1044671;28;20023;-45
2024/04/03 00:30:12;;;;;;;2.83;0.90;;;;;;;;;;1040923;28;20104;-47
2024/04/03 00:30:43;;;;;;;6.38;1.13;;;;;;;;;;1039506;28;20503;-45
2024/04/03 00:31:15;;;;;;;7.10;1.35;;;;;;;;;;1040652;28;20051;-46
2024/04/03 00:31:46;;;;;;;10.13;1.20;;;;;;;;;;1041596;28;20400;-45
2024/04/03 00:32:17;;;;;;;1.73;0.70;;;;;;;;;;1040649;28;20017;-45
2024/04/03 00:32:49;;;;;;;7.43;1.10;;;;;;;;;;1042996;28;20062;-46
2024/04/03 00:33:23;;;;;;;5.40;1.27;;;;;;;;;;1044044;28;20712;-45
2024/04/03 00:33:54;;;;;;;4.70;1.00;;;;;;;;;;1040130;28;20018;-45
2024/04/03 00:34:25;;;;;;;5.00;0.98;;;;;;;;;;1040356;28;20018;-46
2024/04/03 00:34:57;;;;;;;3.13;1.08;;;;;;;;;;1042081;28;20401;-47
2024/04/03 00:35:28;;;;;;;3.63;1.10;;;;;;;;;;1041106;28;20018;-47
2024/04/03 00:36:00;;;;;;;5.30;1.65;;;;;;;;;;1041826;28;20476;-47
2024/04/03 00:36:31;;;;;;;3.38;1.35;;;;;;;;;;1040653;28;20039;-47
2024/04/03 00:37:03;;;;;;;6.20;2.03;;;;;;;;;;1036190;28;20052;-47
2024/04/03 00:37:37;;;;;;;7.30;1.25;;;;;;;;;;1035456;28;20466;-46
2024/04/03 00:38:08;;;;;;;3.08;0.82;;;;;;;;;;1036178;28;20014;-47
2024/04/03 00:38:39;;;;;;;8.25;1.30;;;;;;;;;;1040284;28;20644;-46
2024/04/03 00:39:11;;;;;;;4.47;1.30;;;;;;;;;;1044003;28;20029;-46
2024/04/03 00:39:42;;;;;;;5.03;1.25;;;;;;;;;;1042005;28;20142;-46
2024/04/03 00:40:14;;;;;;;7.63;1.98;;;;;;;;;;1042000;28;20018;-47
2024/04/03 00:40:52;;;;;;;4.85;1.45;;;;;;;;;;1041676;28;20530;-47
2024/04/03 00:41:24;;;;;;;4.18;1.35;;;;;;;;;;1039851;28;20519;-47
2024/04/03 00:41:55;;;;;;;5.63;1.25;;;;;;;;;;1045246;28;20479;-48
2024/04/03 00:42:27;;;;;;;5.70;1.50;;;;;;;;;;1044538;28;20024;-46
2024/04/03 00:43:08;;;;;;;6.88;1.38;;;;;;;;;;1042561;28;20481;-46
2024/04/03 00:43:39;;;;;;;3.92;1.58;;;;;;;;;;1037107;28;20349;-48
2024/04/03 00:44:10;;;;;;;4.10;1.20;;;;;;;;;;1039692;28;20029;-47
2024/04/03 00:44:46;;;;;;;10.05;1.40;;;;;;;;;;1037087;28;20010;-46
2024/04/03 00:45:18;;;;;;;6.63;1.85;;;;;;;;;;1039885;28;20090;-47
2024/04/03 00:45:50;;;;;;;5.28;1.48;;;;;;;;;;1043439;28;20117;-48
2024/04/03 00:46:21;;;;;;;6.00;1.17;;;;;;;;;;1041717;28;20025;-46
2024/04/03 00:46:52;;;;;;;5.72;1.35;;;;;;;;;;1040524;28;20028;-46
2024/04/03 00:47:24;;;;;;;6.45;1.50;;;;;;;;;;1043417;28;20656;-46
2024/04/03 00:47:56;;;;;;;6.93;2.20;;;;;;;;;;1042742;28;20025;-47
2024/04/03 00:48:27;;;;;;;10.35;2.15;;;;;;;;;;1039745;28;20044;-46
2024/04/03 00:48:59;;;;;;;7.78;1.52;;;;;;;;;;1040957;28;20018;-46
2024/04/03 00:49:30;;;;;;;3.47;1.40;;;;;;;;;;1043736;28;20025;-46
2024/04/03 00:50:01;;;;;;;3.88;1.17;;;;;;;;;;1043624;28;20906;-47
2024/04/03 00:50:33;;;;;;;4.10;1.50;;;;;;;;;;1042930;28;20380;-46
2024/04/03 00:51:04;;;;;;;5.57;1.88;;;;;;;;;;1041862;28;20020;-47
2024/04/03 00:51:36;;;;;;;5.47;2.10;;;;;;;;;;1040223;28;20026;-48
2024/04/03 00:52:07;;;;;;;6.10;2.15;;;;;;;;;;1043842;28;20024;-47
2024/04/03 00:52:38;;;;;;;5.10;1.40;;;;;;;;;;1042432;28;20052;-47
2024/04/03 00:53:11;;;;;;;5.53;1.63;;;;;;;;;;1042823;28;20387;-47
2024/04/03 00:53:42;;;;;;;6.55;1.92;;;;;;;;;;1042030;28;20357;-46
2024/04/03 00:54:14;;;;;;;3.63;1.38;;;;;;;;;;1038650;28;20028;-46
2024/04/03 00:54:46;;;;;;;5.57;1.30;;;;;;;;;;1035700;28;20034;-46
2024/04/03 00:55:17;;;;;;;8.10;1.67;;;;;;;;;;1038523;28;20028;-46
2024/04/03 00:55:49;;;;;;;4.75;1.33;;;;;;;;;;1035254;28;20037;-46
2024/04/03 00:56:23;;;;;;;6.43;1.75;;;;;;;;;;1035622;28;20033;-48
2024/04/03 00:56:54;;;;;;;4.28;1.42;;;;;;;;;;1039614;28;20021;-48
2024/04/03 00:57:26;;;;;;;6.60;1.40;;;;;;;;;;1040341;28;20079;-48
2024/04/03 00:57:58;;;;;;;6.47;1.65;;;;;;;;;;1042817;28;20027;-48
2024/04/03 00:58:29;;;;;;;4.20;1.23;;;;;;;;;;1039864;28;20385;-48
2024/04/03 00:59:00;;;;;;;5.72;1.60;;;;;;;;;;1042270;28;20375;-48
2024/04/03 00:59:31;;;;;;;5.30;1.92;;;;;;;;;;1041855;28;20029;-46
2024/04/03 01:00:03;;;;;;;4.35;1.58;;;;;;;;;;1039890;28;20030;-46
2024/04/03 01:00:37;;;;;;;5.65;1.58;;;;;;;;;;1042522;28;20029;-48
2024/04/03 01:01:08;;;;;;;8.35;1.65;;;;;;;;;;1041393;28;20037;-47
2024/04/03 01:01:39;;;;;;;4.63;1.50;;;;;;;;;;1042263;28;20020;-48
2024/04/03 01:02:10;;;;;;;6.63;1.42;;;;;;;;;;1045284;28;20062;-47
2024/04/03 01:02:41;;;;;;;4.68;1.70;;;;;;;;;;1040361;28;20029;-47
2024/04/03 01:03:13;;;;;;;4.03;1.15;;;;;;;;;;1047757;28;20024;-49
2024/04/03 01:03:44;;;;;;;7.05;2.50;;;;;;;;;;1044454;28;20392;-50
2024/04/03 01:04:15;;;;;;;6.38;1.65;;;;;;;;;;1042751;28;20029;-49
2024/04/03 01:04:47;;;;;;;3.58;1.27;;;;;;;;;;1040800;28;20096;-49
2024/04/03 01:05:18;;;;;;;9.57;1.80;;;;;;;;;;1042135;28;20101;-49
2024/04/03 01:05:58;;;;;;;6.47;1.77;;;;;;;;;;1043881;28;20024;-51
2024/04/03 01:06:29;;;;;;;;;;;;;;;;;;1040731;28;20411;-49
2024/04/03 01:07:04;;;;;;;5.97;2.28;;;;;;;;;;1041383;28;19923;-51
2024/04/03 01:07:39;;;;;;;6.85;1.60;;;;;;;;;;1044137;28;20017;-49
2024/04/03 01:08:10;;;;;;;9.50;2.00;;;;;;;;;;1044538;28;20048;-50
2024/04/03 01:08:41;;;;;;;9.75;1.77;;;;;;;;;;1044518;28;20005;-50
2024/04/03 01:09:12;;;;;;;5.95;1.42;;;;;;;;;;1041330;28;20080;-49
2024/04/03 01:09:44;;;;;;;6.85;1.88;;;;;;;;;;1041195;28;20014;-50
2024/04/03 01:10:16;;;;;;;3.97;1.30;;;;;;;;;;1042523;28;20097;-50
2024/04/03 01:10:48;;;;;;;4.50;1.80;;;;;;;;;;1042519;28;20372;-49
2024/04/03 01:11:19;;;;;;;5.07;1.65;;;;;;;;;;1041389;28;20017;-50
2024/04/03 01:11:50;;;;;;;5.00;1.70;;;;;;;;;;1044122;28;20037;-49
2024/04/03 01:12:21;;;;;;;8.45;2.15;;;;;;;;;;1040574;28;20013;-50
2024/04/03 01:12:54;;;;;;;5.70;1.52;;;;;;;;;;1041628;28;20021;-49
2024/04/03 01:13:27;;;;;;;6.47;1.77;;;;;;;;;;1044718;28;20104;-49
2024/04/03 01:13:59;;;;;;;6.40;1.70;;;;;;;;;;1043770;28;20132;-49
2024/04/03 01:14:30;;;;;;;4.65;1.52;;;;;;;;;;1042581;28;20036;-52
2024/04/03 01:15:01;;;;;;;7.18;1.65;;;;;;;;;;1042598;28;20056;-45
2024/04/03 01:15:33;;;;;;;5.57;1.35;;;;;;;;;;1042402;28;20021;-45
2024/04/03 01:16:05;;;;;;;4.43;1.70;;;;;;;;;;1042610;28;20095;-45
2024/04/03 01:16:40;;;;;;;5.90;1.50;;;;;;;;;;1043082;28;20100;-46
2024/04/03 01:17:11;;;;;;;5.65;1.40;;;;;;;;;;1044482;28;20001;-45
2024/04/03 01:17:42;;;;;;;7.20;1.92;;;;;;;;;;1039081;28;20053;-46
2024/04/03 01:18:14;;;;;;;8.55;1.85;;;;;;;;;;1037687;28;20096;-45
2024/04/03 01:18:45;;;;;;;4.68;1.77;;;;;;;;;;1035483;28;20013;-44
2024/04/03 01:19:16;;;;;;;7.93;2.50;;;;;;;;;;1039828;28;20053;-46
2024/04/03 01:19:49;;;;;;;6.60;1.60;;;;;;;;;;1041117;28;20020;-45
2024/04/03 01:20:20;;;;;;;5.88;1.83;;;;;;;;;;1044127;28;20009;-45
2024/04/03 01:20:51;;;;;;;5.38;1.70;;;;;;;;;;1042651;28;20432;-45
2024/04/03 01:21:23;;;;;;;6.20;1.52;;;;;;;;;;1041850;28;20523;-45
2024/04/03 01:21:54;;;;;;;3.05;1.40;;;;;;;;;;1042455;28;20043;-46
2024/04/03 01:22:25;;;;;;;2.47;0.98;;;;;;;;;;1044130;28;20013;-46
2024/04/03 01:22:58;;;;;;;5.72;1.70;;;;;;;;;;1040447;28;20439;-45
2024/04/03 01:23:29;;;;;;;6.22;2.28;;;;;;;;;;1039729;28;20465;-45
2024/04/03 01:24:01;;;;;;;6.43;1.73;;;;;;;;;;1040861;28;20380;-45
2024/04/03 01:24:32;;;;;;;4.55;1.42;;;;;;;;;;1043652;28;20079;-45
2024/04/03 01:25:03;;;;;;;5.65;1.27;;;;;;;;;;1045375;28;20143;-45
2024/04/03 01:25:34;;;;;;;6.53;1.92;;;;;;;;;;1042908;28;20015;-45
2024/04/03 01:26:07;;;;;;;7.15;1.40;;;;;;;;;;1042964;28;20031;-46
2024/04/03 01:26:39;;;;;;;6.65;1.70;;;;;;;;;;1044060;28;20025;-45
2024/04/03 01:27:10;;;;;;;3.80;1.20;;;;;;;;;;1043919;28;20088;-45
2024/04/03 01:27:41;;;;;;;5.00;1.45;;;;;;;;;;1040480;28;20066;-45
2024/04/03 01:28:12;;;;;;;4.43;1.30;;;;;;;;;;1042412;28;20448;-45
2024/04/03 01:28:44;;;;;;;4.38;1.17;;;;;;;;;;1040692;28;20723;-47
2024/04/03 01:29:16;;;;;;;5.25;1.75;;;;;;;;;;1043491;28;20423;-45
2024/04/03 01:29:48;;;;;;;6.25;1.30;;;;;;;;;;1043564;28;20025;-45
2024/04/03 01:30:19;;;;;;;3.17;1.13;;;;;;;;;;1044253;28;20403;-45
2024/04/03 01:30:51;;;;;;;6.60;1.45;;;;;;;;;;1044299;28;20447;-45
2024/04/03 01:31:22;;;;;;;4.15;1.27;;;;;;;;;;1043335;28;20017;-44
2024/04/03 01:31:53;;;;;;;3.85;1.23;;;;;;;;;;1042548;28;20017;-46
2024/04/03 01:32:25;;;;;;;4.88;1.40;;;;;;;;;;1040509;28;20039;-46
2024/04/03 01:32:56;;;;;;;5.40;1.15;;;;;;;;;;1042582;28;20028;-45
2024/04/03 01:33:27;;;;;;;5.93;1.60;;;;;;;;;;1040133;28;20036;-46
2024/04/03 01:33:59;;;;;;;5.72;1.25;;;;;;;;;;1041730;28;20318;-47
2024/04/03 01:34:30;;;;;;;6.90;1.42;;;;;;;;;;1041995;28;20072;-46
2024/04/03 01:35:01;;;;;;;8.77;1.88;;;;;;;;;;1046243;28;20021;-47
2024/04/03 01:35:33;;;;;;;7.43;1.30;;;;;;;;;;1047980;28;20015;-47
2024/04/03 01:36:06;;;;;;;6.78;1.48;;;;;;;;;;1044655;28;20099;-45
2024/04/03 01:36:38;;;;;;;4.55;1.10;;;;;;;;;;1040999;28;20022;-45
2024/04/03 01:37:09;;;;;;;5.38;1.70;;;;;;;;;;1042062;28;20111;-46
2024/04/03 01:37:40;;;;;;;8.02;1.65;;;;;;;;;;1040424;28;20022;-47
2024/04/03 01:38:12;;;;;;;5.75;1.23;;;;;;;;;;1044045;28;20052;-47
2024/04/03 01:38:47;;;;;;;5.50;1.25;;;;;;;;;;1044649;28;20001;-47
2024/04/03 01:39:18;;;;;;;4.25;1.50;;;;;;;;;;1040143;28;20082;-48
2024/04/03 01:39:50;;;;;;;10.68;1.77;;;;;;;;;;1042549;28;20013;-47
2024/04/03 01:40:21;;;;;;;6.10;1.83;;;;;;;;;;1040589;28;20098;-47
2024/04/03 01:40:53;;;;;;;5.82;1.65;;;;;;;;;;1044787;28;20005;-47
2024/04/03 01:41:25;;;;;;;7.40;1.48;;;;;;;;;;1043222;28;20028;-45
2024/04/03 01:41:56;;;;;;;4.32;1.60;;;;;;;;;;1042238;28;20033;-46
2024/04/03 01:42:28;;;;;;;7.28;2.00;;;;;;;;;;1041603;28;20025;-46
2024/04/03 01:42:59;;;;;;;7.05;1.98;;;;;;;;;;1041268;28;20491;-47
2024/04/03 01:43:30;;;;;;;5.50;1.55;;;;;;;;;;1040471;28;20033;-46
2024/04/03 01:44:01;;;;;;;5.80;1.38;;;;;;;;;;1041075;28;20018;-46
2024/04/03 01:44:33;;;;;;;8.25;1.80;;;;;;;;;;1040358;28;20080;-47
2024/04/03 01:45:04;;;;;;;5.07;1.40;;;;;;;;;;1041854;28;20024;-45
2024/04/03 01:45:36;;;;;;;6.20;1.70;;;;;;;;;;1040171;28;20021;-47
2024/04/03 01:46:07;;;;;;;7.28;1.40;;;;;;;;;;1044026;28;20096;-46
2024/04/03 01:46:39;;;;;;;5.90;1.92;;;;;;;;;;1044179;28;20093;-46
2024/04/03 01:47:10;;;;;;;7.75;1.80;;;;;;;;;;1044302;28;20375;-48
2024/04/03 01:47:44;;;;;;;5.60;1.67;;;;;;;;;;1042222;28;20087;-46
2024/04/03 01:48:16;;;;;;;6.55;1.63;;;;;;;;;;1043129;28;20090;-47
2024/04/03 01:48:47;;;;;;;6.07;1.70;;;;;;;;;;1040298;28;20465;-46
2024/04/03 01:49:18;;;;;;;4.38;1.50;;;;;;;;;;1036175;28;20381;-46
2024/04/03 01:49:53;;;;;;;5.40;1.73;;;;;;;;;;1040002;28;20423;-46
2024/04/03 01:50:38;;;;;;;6.45;1.35;;;;;;;;;;1042630;28;20021;-46
2024/04/03 01:51:10;;;;;;;5.25;1.40;;;;;;;;;;1043019;28;20021;-46
2024/04/03 01:51:41;;;;;;;11.05;2.20;;;;;;;;;;1044559;28;20032;-46
2024/04/03 01:52:12;;;;;;;5.20;1.75;;;;;;;;;;1043450;28;20023;-47
2024/04/03 01:52:44;;;;;;;5.15;1.60;;;;;;;;;;1039362;28;20052;-47
2024/04/03 01:53:15;;;;;;;6.63;1.92;;;;;;;;;;1038167;28;20473;-46
2024/04/03 01:53:46;;;;;;;6.32;1.50;;;;;;;;;;1041826;28;20014;-47
2024/04/03 01:54:17;;;;;;;8.23;2.55;;;;;;;;;;1040550;28;20032;-46
2024/04/03 01:54:50;;;;;;;6.40;1.75;;;;;;;;;;1044556;28;20001;-47
2024/04/03 01:55:21;;;;;;;6.00;2.67;;;;;;;;;;1043726;28;20087;-47
2024/04/03 01:55:56;;;;;;;3.83;1.48;;;;;;;;;;1040479;28;20088;-46
2024/04/03 01:56:27;;;;;;;5.60;1.45;;;;;;;;;;1042250;28;20126;-46
2024/04/03 01:56:58;;;;;;;9.00;2.10;;;;;;;;;;1040843;28;20025;-47
2024/04/03 01:57:29;;;;;;;7.30;2.40;;;;;;;;;;1040874;28;20026;-47
2024/04/03 01:58:01;;;;;;;6.50;2.63;;;;;;;;;;1044967;28;20487;-46
2024/04/03 01:58:32;;;;;;;6.65;2.58;;;;;;;;;;1041878;28;20380;-46
2024/04/03 01:59:03;;;;;;;8.32;2.00;;;;;;;;;;1042098;28;20356;-47
2024/04/03 01:59:35;;;;;;;6.00;1.80;;;;;;;;;;1039922;28;20019;-47
2024/04/03 02:00:07;;;;;;;4.68;1.88;;;;;;;;;;1044001;28;20036;-46
2024/04/03 02:00:38;;;;;;;4.15;1.92;;;;;;;;;;1044209;28;20024;-48
2024/04/03 02:01:10;;;;;;;4.68;2.22;;;;;;;;;;1040783;28;20018;-48
2024/04/03 02:01:41;;;;;;;8.75;2.10;;;;;;;;;;1042228;28;20447;-47
2024/04/03 02:02:12;;;;;;;7.82;2.38;;;;;;;;;;1041126;28;20046;-46
2024/04/03 02:02:43;;;;;;;11.43;2.30;;;;;;;;;;1042764;28;20415;-47
2024/04/03 02:03:15;;;;;;;7.70;2.60;;;;;;;;;;1043654;28;20084;-46
2024/04/03 02:03:46;;;;;;;10.07;2.35;;;;;;;;;;1040126;28;20018;-46
2024/04/03 02:04:18;;;;;;;6.03;1.98;;;;;;;;;;1038244;28;20587;-46
2024/04/03 02:04:49;;;;;;;4.03;1.88;;;;;;;;;;1038446;28;20053;-46
2024/04/03 02:05:20;;;;;;;7.18;1.85;;;;;;;;;;1037741;28;20054;-47
2024/04/03 02:05:51;;;;;;;5.03;2.10;;;;;;;;;;1041414;28;20084;-46
2024/04/03 02:06:23;;;;;;;5.25;1.83;;;;;;;;;;1041830;28;20066;-47
2024/04/03 02:06:54;;;;;;;5.90;1.65;;;;;;;;;;1043056;28;20005;-46
2024/04/03 02:07:25;;;;;;;8.82;2.30;;;;;;;;;;1040271;28;20029;-46
2024/04/03 02:07:57;;;;;;;7.60;2.13;;;;;;;;;;1043655;28;20025;-46
2024/04/03 02:08:28;;;;;;;7.03;1.90;;;;;;;;;;1045104;28;20011;-46
2024/04/03 02:08:59;;;;;;;4.78;1.65;;;;;;;;;;1044688;28;20120;-46
2024/04/03 02:09:30;;;;;;;6.75;2.00;;;;;;;;;;1042669;28;20398;-46
2024/04/03 02:10:02;;;;;;;8.13;1.83;;;;;;;;;;1041598;28;20041;-45
2024/04/03 02:10:34;;;;;;;5.57;1.80;;;;;;;;;;1040264;28;20072;-44
2024/04/03 02:11:05;;;;;;;8.48;2.45;;;;;;;;;;1042353;28;20020;-45
2024/04/03 02:11:36;;;;;;;6.25;2.38;;;;;;;;;;1040429;28;20530;-44
2024/04/03 02:12:08;;;;;;;7.15;2.08;;;;;;;;;;1042341;28;20434;-45
2024/04/03 02:12:39;;;;;;;5.60;1.88;;;;;;;;;;1041156;28;20023;-47
2024/04/03 02:13:10;;;;;;;6.13;2.00;;;;;;;;;;1041086;28;20023;-44
2024/04/03 02:13:42;;;;;;;7.15;2.17;;;;;;;;;;1039574;28;20032;-45
2024/04/03 02:14:13;;;;;;;7.35;2.40;;;;;;;;;;1043442;28;20048;-45
2024/04/03 02:14:45;;;;;;;9.93;2.33;;;;;;;;;;1040210;28;20428;-45
2024/04/03 02:15:16;;;;;;;7.15;1.88;;;;;;;;;;1044931;28;20111;-45
2024/04/03 02:15:53;;;;;;;7.53;2.40;;;;;;;;;;1044198;28;20013;-46
2024/04/03 02:16:25;;;;;;;12.00;2.60;;;;;;;;;;1040469;28;20480;-45
2024/04/03 02:16:56;;;;;;;9.75;2.28;;;;;;;;;;1044286;28;20020;-45
2024/04/03 02:17:27;;;;;;;8.43;2.33;;;;;;;;;;1042482;28;20017;-45
2024/04/03 02:17:59;;;;;;;8.10;2.20;;;;;;;;;;1040892;28;20010;-45
2024/04/03 02:18:30;;;;;;;8.10;2.20;;;;;;;;;;1040125;28;20032;-45
2024/04/03 02:19:01;;;;;;;9.95;2.67;;;;;;;;;;1042774;28;20460;-45
2024/04/03 02:19:35;;;;;;;5.63;1.98;;;;;;;;;;1041743;28;20028;-45
2024/04/03 02:20:08;;;;;;;6.38;2.10;;;;;;;;;;1039885;28;20016;-45
2024/04/03 02:20:39;;;;;;;8.88;2.45;;;;;;;;;;1039695;28;20029;-45
2024/04/03 02:21:10;;;;;;;7.40;2.55;;;;;;;;;;1039818;28;20092;-45
2024/04/03 02:21:42;;;;;;;9.20;3.15;;;;;;;;;;1039934;28;20109;-46
2024/04/03 02:22:13;;;;;;;8.10;2.10;;;;;;;;;;1043307;28;20041;-46
2024/04/03 02:22:46;;;;;;;7.47;2.38;;;;;;;;;;1041262;28;20010;-46
2024/04/03 02:23:17;;;;;;;10.75;2.40;;;;;;;;;;1037634;28;20377;-46
2024/04/03 02:23:49;;;;;;;5.88;1.98;;;;;;;;;;1038944;28;20029;-45
2024/04/03 02:24:53;;;;;;;8.00;2.00;;;;;;;;;;1036174;28;20021;-45
2024/04/03 02:25:24;;;;;;;6.10;1.58;;;;;;;;;;1044026;28;20029;-45
2024/04/03 02:25:56;;;;;;;8.07;2.22;;;;;;;;;;1041458;28;20088;-45
2024/04/03 02:26:28;;;;;;;8.25;2.03;;;;;;;;;;1044102;28;20345;-45
2024/04/03 02:27:00;;;;;;;8.45;1.90;;;;;;;;;;1044595;28;20391;-44
2024/04/03 02:27:31;;;;;;;9.05;2.22;;;;;;;;;;1044364;28;20056;-44
2024/04/03 02:28:02;;;;;;;10.63;2.28;;;;;;;;;;1042757;28;20020;-45
2024/04/03 02:28:34;;;;;;;5.10;1.75;;;;;;;;;;1040379;28;20021;-45
2024/04/03 02:29:05;;;;;;;6.22;1.70;;;;;;;;;;1042129;28;20977;-45
2024/04/03 02:29:36;;;;;;;10.13;2.42;;;;;;;;;;1041423;28;20024;-45
2024/04/03 02:30:08;;;;;;;5.63;1.60;;;;;;;;;;1043308;28;20088;-45
2024/04/03 02:30:39;;;;;;;8.95;2.28;;;;;;;;;;1043100;28;20533;-45
2024/04/03 02:31:10;;;;;;;9.05;1.77;;;;;;;;;;1042585;28;20037;-47
2024/04/03 02:31:42;;;;;;;9.07;2.42;;;;;;;;;;1042355;28;20021;-46
2024/04/03 02:32:13;;;;;;;5.45;1.75;;;;;;;;;;1043621;28;20339;-48
2024/04/03 02:32:47;;;;;;;7.57;1.92;;;;;;;;;;1042286;28;20375;-52
2024/04/03 02:33:19;;;;;;;9.82;3.38;;;;;;;;;;1041037;28;20108;-49
2024/04/03 02:33:50;;;;;;;6.10;1.75;;;;;;;;;;1043817;28;20433;-50
2024/04/03 02:34:21;;;;;;;9.20;2.63;;;;;;;;;;1040712;28;20028;-50
2024/04/03 02:34:56;;;;;;;4.22;1.55;;;;;;;;;;1037128;28;20026;-50
2024/04/03 02:35:28;;;;;;;14.18;4.22;;;;;;;;;;1035893;28;20022;-51
2024/04/03 02:36:07;;;;;;;6.35;2.08;;;;;;;;;;1032562;28;20023;-49
2024/04/03 02:36:39;;;;;;;6.03;2.40;;;;;;;;;;1037500;28;20087;-49
2024/04/03 02:37:10;;;;;;;8.45;1.70;;;;;;;;;;1039402;28;20025;-51
2024/04/03 02:37:41;;;;;;;7.40;2.20;;;;;;;;;;1040789;28;20017;-49
2024/04/03 02:38:12;;;;;;;8.43;1.73;;;;;;;;;;1044088;28;20032;-50
2024/04/03 02:38:44;;;;;;;3.67;1.35;;;;;;;;;;1042751;28;20368;-51
2024/04/03 02:39:15;;;;;;;9.13;1.92;;;;;;;;;;1042993;28;20037;-50
2024/04/03 02:39:46;;;;;;;8.45;1.70;;;;;;;;;;1041416;28;20005;-49
2024/04/03 02:40:17;;;;;;;8.50;2.58;;;;;;;;;;1042522;28;20005;-50
2024/04/03 02:40:49;;;;;;;8.45;2.33;;;;;;;;;;1042661;28;20021;-48
2024/04/03 02:41:20;;;;;;;8.77;2.13;;;;;;;;;;1042912;28;20047;-50
2024/04/03 02:41:52;;;;;;;6.32;1.85;;;;;;;;;;1042672;28;20020;-49
2024/04/03 02:42:24;;;;;;;8.40;1.55;;;;;;;;;;1042562;28;20067;-49
2024/04/03 02:42:56;;;;;;;8.10;2.20;;;;;;;;;;1043462;28;20472;-50
2024/04/03 02:43:27;;;;;;;8.10;2.22;;;;;;;;;;1042873;28;21601;-49
2024/04/03 02:43:58;;;;;;;7.40;2.08;;;;;;;;;;1043121;28;20488;-51
2024/04/03 02:44:29;;;;;;;10.00;1.88;;;;;;;;;;1039852;28;20388;-49
2024/04/03 02:45:01;;;;;;;7.03;1.65;;;;;;;;;;1038288;28;20017;-50
2024/04/03 02:45:32;;;;;;;6.07;1.90;;;;;;;;;;1040018;28;20408;-50
2024/04/03 02:46:04;;;;;;;8.13;2.65;;;;;;;;;;1046049;28;20104;-50
2024/04/03 02:46:35;;;;;;;6.25;2.13;;;;;;;;;;1046307;28;20114;-51
2024/04/03 02:47:06;;;;;;;5.32;1.75;;;;;;;;;;1041597;28;20459;-50
2024/04/03 02:47:38;;;;;;;6.35;1.75;;;;;;;;;;1040826;28;20021;-50
2024/04/03 02:48:09;;;;;;;9.63;2.13;;;;;;;;;;1044192;28;20782;-49
2024/04/03 02:48:40;;;;;;;10.00;2.28;;;;;;;;;;1044278;28;20388;-52
2024/04/03 02:49:13;;;;;;;7.50;2.08;;;;;;;;;;1044141;28;20032;-50
2024/04/03 02:49:44;;;;;;;9.88;2.60;;;;;;;;;;1042378;28;20021;-50
2024/04/03 02:50:16;;;;;;;11.70;2.72;;;;;;;;;;1038805;28;20029;-49
2024/04/03 02:50:48;;;;;;;7.45;2.08;;;;;;;;;;1040504;28;20038;-49
2024/04/03 02:51:20;;;;;;;6.47;2.33;;;;;;;;;;1042130;28;20021;-50
2024/04/03 02:51:51;;;;;;;9.73;2.83;;;;;;;;;;1043792;28;20025;-49
2024/04/03 02:52:23;;;;;;;8.85;2.72;;;;;;;;;;1042034;28;20017;-50
2024/04/03 02:52:54;;;;;;;8.60;1.95;;;;;;;;;;1041570;28;20344;-48
2024/04/03 02:53:25;;;;;;;7.07;2.05;;;;;;;;;;1041659;28;20014;-50
2024/04/03 02:53:56;;;;;;;6.70;2.30;;;;;;;;;;1044415;28;20017;-50
2024/04/03 02:54:28;;;;;;;9.85;2.75;;;;;;;;;;1043984;28;20017;-48
2024/04/03 02:55:04;;;;;;;7.45;2.10;;;;;;;;;;1042398;28;20046;-46
2024/04/03 02:55:38;;;;;;;7.53;2.15;;;;;;;;;;1044045;28;20468;-50
2024/04/03 02:56:09;;;;;;;10.18;1.88;;;;;;;;;;1040436;28;20093;-54
2024/04/03 02:56:41;;;;;;;7.70;2.10;;;;;;;;;;1043119;28;20013;-50
2024/04/03 02:57:13;;;;;;;8.88;3.00;;;;;;;;;;1044046;28;20456;-51
2024/04/03 02:57:44;;;;;;;7.03;2.17;;;;;;;;;;1043364;28;20476;-51
2024/04/03 02:58:15;;;;;;;7.00;2.10;;;;;;;;;;1040637;28;20392;-49
2024/04/03 02:58:46;;;;;;;6.97;1.55;;;;;;;;;;1040013;28;20122;-49
2024/04/03 02:59:18;;;;;;;7.75;2.50;;;;;;;;;;1040810;28;20036;-50
2024/04/03 02:59:49;;;;;;;7.03;2.08;;;;;;;;;;1043694;28;20016;-50
2024/04/03 03:00:20;;;;;;;5.35;2.13;;;;;;;;;;1043795;28;20025;-50
2024/04/03 03:01:02;;;;;;;9.40;2.47;;;;;;;;;;1044174;28;20530;-49
2024/04/03 03:01:33;;;;;;;14.00;3.17;;;;;;;;;;1039901;28;20014;-50
2024/04/03 03:02:05;;;;;;;5.88;2.08;;;;;;;;;;1042216;28;20075;-49
2024/04/03 03:02:36;;;;;;;8.90;2.63;;;;;;;;;;1041483;28;20022;-50
2024/04/03 03:03:07;;;;;;;8.48;2.38;;;;;;;;;;1046246;28;20015;-50
2024/04/03 03:03:38;;;;;;;7.45;1.90;;;;;;;;;;1039634;28;20092;-49
2024/04/03 03:04:10;;;;;;;5.50;1.85;;;;;;;;;;1042309;28;20033;-47
2024/04/03 03:04:42;;;;;;;9.55;2.25;;;;;;;;;;1040552;28;20112;-49
2024/04/03 03:05:13;;;;;;;9.25;2.28;;;;;;;;;;1043061;28;20079;-50
2024/04/03 03:05:48;;;;;;;8.05;2.00;;;;;;;;;;1039985;28;20022;-50
2024/04/03 03:06:19;;;;;;;7.88;2.83;;;;;;;;;;1042241;28;20051;-51
2024/04/03 03:06:51;;;;;;;8.77;3.00;;;;;;;;;;1040628;28;20088;-49
2024/04/03 03:07:23;;;;;;;9.35;1.88;;;;;;;;;;1046109;28;20063;-50
2024/04/03 03:07:54;;;;;;;6.63;2.58;;;;;;;;;;1045998;28;20027;-50
2024/04/03 03:08:26;;;;;;;5.20;1.80;;;;;;;;;;1043773;28;20013;-49
2024/04/03 03:08:57;;;;;;;6.57;1.90;;;;;;;;;;1044566;28;20504;-48
2024/04/03 03:09:28;;;;;;;6.03;2.03;;;;;;;;;;1041425;28;20345;-47
2024/04/03 03:09:59;;;;;;;14.15;1.83;;;;;;;;;;1043592;28;20448;-49
2024/04/03 03:10:32;;;;;;;7.63;1.83;;;;;;;;;;1040329;28;20100;-48
2024/04/03 03:11:04;;;;;;;15.60;2.95;;;;;;;;;;1041655;28;20111;-48